GLO1425 SBCY-SBSP
Flight info
| Callsign | GLO1425 |
|---|---|
| Flight time | N/A |
| Altitude | 37000 |
| Route | DIKUN DCT ASDOV DCT UTLOT |
| Aircraft | B738/M-SDE2E3FGHIRWXY/LB1 |
Departure
| Time | 2026-04-27 23:35 |
|---|---|
| Airport | Várzea Grande–Marechal Rondon International Airport (SBCY) |
Arrival
| Time | N/A |
|---|---|
| Airport | Congonhas–Deputado Freitas Nobre Airport (SBSP) |
| Time | Latitude | Longitude | Altitude | Speed | Heading |
|---|---|---|---|---|---|
| 2026-04-27 23:05 | -15.64986 | -56.12017 | 617 ft | 0 kts | 243° |
| 2026-04-27 23:24 | -15.64982 | -56.12010 | 616 ft | 2 kts | 243° |
| 2026-04-27 23:24 | -15.64978 | -56.12001 | 616 ft | 2 kts | 242° |
| 2026-04-27 23:25 | -15.64968 | -56.11990 | 616 ft | 2 kts | 209° |
| 2026-04-27 23:25 | -15.64954 | -56.11985 | 617 ft | 2 kts | 184° |
| 2026-04-27 23:25 | -15.64939 | -56.11986 | 617 ft | 1 kts | 159° |
| 2026-04-27 23:25 | -15.64933 | -56.11989 | 617 ft | 1 kts | 150° |
| 2026-04-27 23:26 | -15.64931 | -56.11990 | 617 ft | 0 kts | 152° |
| 2026-04-27 23:28 | -15.64948 | -56.11982 | 617 ft | 8 kts | 153° |
| 2026-04-27 23:28 | -15.64988 | -56.11961 | 615 ft | 10 kts | 154° |
| 2026-04-27 23:29 | -15.65084 | -56.11910 | 613 ft | 13 kts | 153° |
| 2026-04-27 23:29 | -15.65172 | -56.11863 | 610 ft | 15 kts | 153° |
| 2026-04-27 23:29 | -15.65277 | -56.11807 | 607 ft | 18 kts | 153° |
| 2026-04-27 23:29 | -15.65395 | -56.11744 | 604 ft | 19 kts | 153° |
| 2026-04-27 23:30 | -15.65513 | -56.11682 | 600 ft | 19 kts | 152° |
| 2026-04-27 23:30 | -15.65641 | -56.11614 | 598 ft | 21 kts | 152° |
| 2026-04-27 23:30 | -15.65768 | -56.11546 | 597 ft | 18 kts | 153° |
| 2026-04-27 23:30 | -15.65887 | -56.11483 | 597 ft | 19 kts | 153° |
| 2026-04-27 23:31 | -15.66008 | -56.11419 | 597 ft | 19 kts | 153° |
| 2026-04-27 23:31 | -15.66123 | -56.11358 | 599 ft | 16 kts | 153° |
| 2026-04-27 23:31 | -15.66205 | -56.11314 | 600 ft | 9 kts | 153° |
| 2026-04-27 23:31 | -15.66245 | -56.11285 | 599 ft | 5 kts | 122° |
| 2026-04-27 23:32 | -15.66246 | -56.11283 | 599 ft | 0 kts | 119° |
| 2026-04-27 23:32 | -15.66251 | -56.11269 | 599 ft | 3 kts | 102° |
| 2026-04-27 23:33 | -15.66241 | -56.11232 | 598 ft | 6 kts | 63° |
| 2026-04-27 23:33 | -15.66223 | -56.11196 | 598 ft | 6 kts | 57° |
| 2026-04-27 23:33 | -15.66183 | -56.11196 | 598 ft | 0 kts | 333° |
| 2026-04-27 23:34 | -15.66179 | -56.11199 | 598 ft | 4 kts | 333° |
| 2026-04-27 23:34 | -15.65920 | -56.11337 | 597 ft | 81 kts | 333° |
| 2026-04-27 23:35 | -15.65194 | -56.11721 | 607 ft | 147 kts | 332° |
| 2026-04-27 23:35 | -15.64151 | -56.12271 | 887 ft | 175 kts | 333° |
| 2026-04-27 23:35 | -15.63071 | -56.12790 | 1612 ft | 176 kts | 333° |
| 2026-04-27 23:35 | -15.61946 | -56.13353 | 2242 ft | 182 kts | 333° |
| 2026-04-27 23:36 | -15.60807 | -56.13962 | 2603 ft | 188 kts | 332° |
| 2026-04-27 23:36 | -15.59628 | -56.14651 | 2961 ft | 195 kts | 326° |
| 2026-04-27 23:36 | -15.58639 | -56.15594 | 3414 ft | 196 kts | 309° |
| 2026-04-27 23:36 | -15.57991 | -56.16880 | 3753 ft | 210 kts | 288° |
| 2026-04-27 23:37 | -15.57795 | -56.18409 | 4244 ft | 227 kts | 269° |
| 2026-04-27 23:37 | -15.58234 | -56.20050 | 4635 ft | 251 kts | 236° |
| 2026-04-27 23:37 | -15.59620 | -56.21231 | 5170 ft | 266 kts | 199° |
| 2026-04-27 23:37 | -15.61453 | -56.21511 | 5782 ft | 276 kts | 177° |
| 2026-04-27 23:38 | -15.63409 | -56.21394 | 6480 ft | 285 kts | 174° |
| 2026-04-27 23:38 | -15.65427 | -56.21435 | 7215 ft | 292 kts | 194° |
| 2026-04-27 23:38 | -15.67221 | -56.22381 | 7969 ft | 296 kts | 222° |
| 2026-04-27 23:38 | -15.68713 | -56.23821 | 8767 ft | 298 kts | 219° |
| 2026-04-27 23:39 | -15.70518 | -56.24883 | 9485 ft | 303 kts | 196° |
| 2026-04-27 23:39 | -15.72615 | -56.25019 | 10225 ft | 306 kts | 167° |
| 2026-04-27 23:39 | -15.74568 | -56.24128 | 10665 ft | 317 kts | 141° |
| 2026-04-27 23:39 | -15.76322 | -56.22632 | 11120 ft | 330 kts | 143° |
| 2026-04-27 23:40 | -15.78433 | -56.21559 | 11472 ft | 348 kts | 163° |
| 2026-04-27 23:40 | -15.80850 | -56.21127 | 11855 ft | 363 kts | 175° |
| 2026-04-27 23:40 | -15.83445 | -56.20995 | 12389 ft | 373 kts | 179° |
| 2026-04-27 23:40 | -15.86033 | -56.20982 | 13066 ft | 376 kts | 178° |
| 2026-04-27 23:41 | -15.88657 | -56.20640 | 13684 ft | 381 kts | 163° |
| 2026-04-27 23:41 | -15.91013 | -56.19402 | 14310 ft | 383 kts | 141° |
| 2026-04-27 23:41 | -15.92816 | -56.17373 | 14899 ft | 384 kts | 123° |
| 2026-04-27 23:41 | -15.94249 | -56.15022 | 15482 ft | 388 kts | 120° |
| 2026-04-27 23:42 | -15.95638 | -56.12638 | 16053 ft | 392 kts | 120° |
| 2026-04-27 23:42 | -15.97073 | -56.10212 | 16599 ft | 396 kts | 121° |
| 2026-04-27 23:42 | -15.98540 | -56.07792 | 17131 ft | 400 kts | 121° |
| 2026-04-27 23:42 | -16.00069 | -56.05324 | 17659 ft | 404 kts | 122° |
| 2026-04-27 23:43 | -16.01605 | -56.02877 | 18167 ft | 409 kts | 122° |
| 2026-04-27 23:43 | -16.03161 | -56.00414 | 18670 ft | 413 kts | 122° |
| 2026-04-27 23:43 | -16.04754 | -55.97899 | 19176 ft | 417 kts | 122° |
| 2026-04-27 23:43 | -16.06358 | -55.95368 | 19652 ft | 421 kts | 122° |
| 2026-04-27 23:44 | -16.07960 | -55.92839 | 20161 ft | 423 kts | 122° |
| 2026-04-27 23:44 | -16.09581 | -55.90277 | 20605 ft | 428 kts | 122° |
| 2026-04-27 23:44 | -16.11216 | -55.87688 | 21125 ft | 430 kts | 122° |
| 2026-04-27 23:44 | -16.12871 | -55.85067 | 21600 ft | 433 kts | 122° |
| 2026-04-27 23:45 | -16.14529 | -55.82439 | 22066 ft | 436 kts | 122° |
| 2026-04-27 23:45 | -16.16186 | -55.79810 | 22518 ft | 439 kts | 122° |
| 2026-04-27 23:45 | -16.17871 | -55.77135 | 22945 ft | 443 kts | 122° |
| 2026-04-27 23:45 | -16.19556 | -55.74458 | 23438 ft | 445 kts | 122° |
| 2026-04-27 23:46 | -16.21257 | -55.71756 | 23887 ft | 448 kts | 122° |
| 2026-04-27 23:46 | -16.22971 | -55.69033 | 24298 ft | 451 kts | 122° |
| 2026-04-27 23:46 | -16.24674 | -55.66325 | 24773 ft | 453 kts | 122° |
| 2026-04-27 23:46 | -16.26401 | -55.63579 | 25183 ft | 456 kts | 122° |
| 2026-04-27 23:47 | -16.28137 | -55.60817 | 25620 ft | 458 kts | 122° |
| 2026-04-27 23:47 | -16.29895 | -55.58018 | 26038 ft | 460 kts | 122° |
| 2026-04-27 23:47 | -16.31642 | -55.55236 | 26436 ft | 463 kts | 122° |
| 2026-04-27 23:47 | -16.33401 | -55.52434 | 26817 ft | 466 kts | 122° |
| 2026-04-27 23:48 | -16.35176 | -55.49604 | 27216 ft | 468 kts | 122° |
| 2026-04-27 23:48 | -16.36956 | -55.46765 | 27589 ft | 471 kts | 123° |
| 2026-04-27 23:48 | -16.38761 | -55.43887 | 28011 ft | 473 kts | 123° |
| 2026-04-27 23:48 | -16.40557 | -55.41020 | 28338 ft | 476 kts | 123° |
| 2026-04-27 23:49 | -16.42360 | -55.38141 | 28683 ft | 479 kts | 123° |
| 2026-04-27 23:49 | -16.44196 | -55.35207 | 29048 ft | 481 kts | 123° |
| 2026-04-27 23:49 | -16.46000 | -55.32324 | 29617 ft | 478 kts | 122° |
| 2026-04-27 23:49 | -16.47798 | -55.29449 | 30155 ft | 476 kts | 123° |
| 2026-04-27 23:50 | -16.49606 | -55.26557 | 30554 ft | 476 kts | 123° |
| 2026-04-27 23:50 | -16.51419 | -55.23657 | 30969 ft | 476 kts | 122° |
| 2026-04-27 23:50 | -16.53212 | -55.20786 | 31393 ft | 476 kts | 123° |
| 2026-04-27 23:50 | -16.55018 | -55.17896 | 31819 ft | 475 kts | 123° |
| 2026-04-27 23:51 | -16.56829 | -55.14996 | 32225 ft | 475 kts | 123° |
| 2026-04-27 23:51 | -16.58615 | -55.12134 | 32612 ft | 474 kts | 123° |
| 2026-04-27 23:51 | -16.60410 | -55.09256 | 33051 ft | 473 kts | 123° |
| 2026-04-27 23:51 | -16.62189 | -55.06402 | 33447 ft | 473 kts | 123° |
| 2026-04-27 23:52 | -16.63992 | -55.03508 | 33892 ft | 471 kts | 123° |
| 2026-04-27 23:52 | -16.65776 | -55.00644 | 34291 ft | 471 kts | 123° |
| 2026-04-27 23:52 | -16.67544 | -54.97804 | 34588 ft | 471 kts | 123° |
| 2026-04-27 23:52 | -16.69328 | -54.94939 | 34996 ft | 470 kts | 123° |
| 2026-04-27 23:53 | -16.71097 | -54.92096 | 35358 ft | 469 kts | 123° |
| 2026-04-27 23:53 | -16.72889 | -54.89216 | 35667 ft | 469 kts | 123° |
| 2026-04-27 23:53 | -16.74653 | -54.86379 | 36002 ft | 469 kts | 123° |
| 2026-04-27 23:53 | -16.76420 | -54.83536 | 36300 ft | 469 kts | 123° |
| 2026-04-27 23:54 | -16.78196 | -54.80677 | 36613 ft | 468 kts | 123° |
| 2026-04-27 23:54 | -16.79945 | -54.77861 | 36912 ft | 467 kts | 123° |
| 2026-04-27 23:54 | -16.81721 | -54.74999 | 37022 ft | 469 kts | 123° |
| 2026-04-27 23:54 | -16.83507 | -54.72120 | 37026 ft | 469 kts | 123° |
| 2026-04-27 23:55 | -16.87028 | -54.66441 | 37022 ft | 466 kts | 123° |
| 2026-04-27 23:55 | -16.90548 | -54.60760 | 37014 ft | 467 kts | 123° |
| 2026-04-27 23:56 | -16.94066 | -54.55079 | 37009 ft | 469 kts | 123° |
| 2026-04-27 23:56 | -16.97622 | -54.49330 | 37003 ft | 468 kts | 123° |
| 2026-04-27 23:57 | -17.01149 | -54.43623 | 37009 ft | 469 kts | 123° |
| 2026-04-27 23:57 | -17.04664 | -54.37932 | 37016 ft | 468 kts | 124° |
| 2026-04-27 23:58 | -17.08199 | -54.32202 | 37024 ft | 468 kts | 123° |
| 2026-04-27 23:58 | -17.11720 | -54.26491 | 37029 ft | 468 kts | 123° |
| 2026-04-27 23:59 | -17.15253 | -54.20757 | 37033 ft | 469 kts | 123° |
| 2026-04-27 23:59 | -17.18779 | -54.15027 | 37033 ft | 468 kts | 123° |
| 2026-04-28 00:00 | -17.22280 | -54.09333 | 37040 ft | 470 kts | 123° |
| 2026-04-28 00:00 | -17.25804 | -54.03598 | 37043 ft | 469 kts | 123° |
| 2026-04-28 00:01 | -17.29333 | -53.97857 | 37050 ft | 467 kts | 124° |
| 2026-04-28 00:01 | -17.33166 | -53.92371 | 37057 ft | 467 kts | 129° |
| 2026-04-28 00:02 | -17.37273 | -53.87167 | 37060 ft | 466 kts | 131° |
| 2026-04-28 00:02 | -17.41470 | -53.81955 | 37075 ft | 466 kts | 131° |
| 2026-04-28 00:03 | -17.45603 | -53.76780 | 37085 ft | 466 kts | 131° |
| 2026-04-28 00:03 | -17.49747 | -53.71540 | 37084 ft | 467 kts | 130° |
| 2026-04-28 00:04 | -17.55930 | -53.63662 | 37084 ft | 466 kts | 130° |
| 2026-04-28 00:05 | -17.60019 | -53.58431 | 37082 ft | 466 kts | 130° |
| 2026-04-28 00:05 | -17.64125 | -53.53171 | 37089 ft | 466 kts | 130° |
| 2026-04-28 00:06 | -17.68215 | -53.47928 | 37098 ft | 466 kts | 130° |
| 2026-04-28 00:06 | -17.72320 | -53.42661 | 37105 ft | 465 kts | 130° |
| 2026-04-28 00:07 | -17.76408 | -53.37411 | 37104 ft | 466 kts | 130° |
| 2026-04-28 00:07 | -17.80501 | -53.32150 | 37100 ft | 466 kts | 129° |
| 2026-04-28 00:08 | -17.84588 | -53.26894 | 37100 ft | 466 kts | 129° |
| 2026-04-28 00:08 | -17.88705 | -53.21594 | 37097 ft | 467 kts | 129° |
| 2026-04-28 00:09 | -17.92795 | -53.16325 | 37099 ft | 467 kts | 129° |
| 2026-04-28 00:09 | -17.96892 | -53.11041 | 37110 ft | 466 kts | 129° |
| 2026-04-28 00:10 | -18.00968 | -53.05783 | 37123 ft | 466 kts | 129° |
| 2026-04-28 00:10 | -18.05073 | -53.00483 | 37132 ft | 466 kts | 129° |
| 2026-04-28 00:11 | -18.09161 | -52.95200 | 37131 ft | 467 kts | 129° |
| 2026-04-28 00:11 | -18.13239 | -52.89924 | 37122 ft | 467 kts | 129° |
| 2026-04-28 00:12 | -18.17340 | -52.84614 | 37120 ft | 467 kts | 129° |
| 2026-04-28 00:12 | -18.21416 | -52.79334 | 37117 ft | 465 kts | 129° |
| 2026-04-28 00:13 | -18.25496 | -52.74042 | 37113 ft | 466 kts | 129° |
| 2026-04-28 00:13 | -18.29557 | -52.68773 | 37108 ft | 468 kts | 129° |
| 2026-04-28 00:14 | -18.33665 | -52.63440 | 37107 ft | 466 kts | 129° |
| 2026-04-28 00:14 | -18.37737 | -52.58147 | 37100 ft | 466 kts | 129° |
| 2026-04-28 00:15 | -18.41803 | -52.52857 | 37096 ft | 466 kts | 129° |
| 2026-04-28 00:15 | -18.45880 | -52.47549 | 37088 ft | 465 kts | 129° |
| 2026-04-28 00:16 | -18.49940 | -52.42258 | 37085 ft | 466 kts | 129° |
| 2026-04-28 00:16 | -18.54009 | -52.36952 | 37081 ft | 468 kts | 129° |
| 2026-04-28 00:17 | -18.58100 | -52.31611 | 37075 ft | 467 kts | 129° |
| 2026-04-28 00:17 | -18.62189 | -52.26268 | 37072 ft | 467 kts | 129° |
| 2026-04-28 00:18 | -18.66260 | -52.20945 | 37070 ft | 467 kts | 129° |
| 2026-04-28 00:18 | -18.70318 | -52.15635 | 37068 ft | 467 kts | 129° |
| 2026-04-28 00:19 | -18.74367 | -52.10332 | 37064 ft | 466 kts | 129° |
| 2026-04-28 00:19 | -18.78439 | -52.04995 | 37060 ft | 468 kts | 129° |
| 2026-04-28 00:20 | -18.82509 | -51.99656 | 37052 ft | 467 kts | 129° |
| 2026-04-28 00:20 | -18.86597 | -51.94288 | 37051 ft | 467 kts | 129° |
| 2026-04-28 00:21 | -18.90647 | -51.88965 | 37049 ft | 467 kts | 129° |
| 2026-04-28 00:21 | -18.94701 | -51.83633 | 37045 ft | 467 kts | 129° |
| 2026-04-28 00:22 | -18.98774 | -51.78272 | 37046 ft | 468 kts | 129° |
| 2026-04-28 00:22 | -19.02854 | -51.72897 | 37044 ft | 469 kts | 129° |
| 2026-04-28 00:23 | -19.06936 | -51.67514 | 37045 ft | 468 kts | 129° |
| 2026-04-28 00:23 | -19.10985 | -51.62168 | 37042 ft | 466 kts | 129° |
| 2026-04-28 00:24 | -19.15019 | -51.56838 | 37042 ft | 468 kts | 129° |
| 2026-04-28 00:24 | -19.19076 | -51.51474 | 37037 ft | 467 kts | 129° |
| 2026-04-28 00:25 | -19.23143 | -51.46093 | 37034 ft | 469 kts | 129° |
| 2026-04-28 00:25 | -19.27230 | -51.40679 | 37031 ft | 468 kts | 129° |
| 2026-04-28 00:26 | -19.31263 | -51.35332 | 37026 ft | 467 kts | 129° |
| 2026-04-28 00:26 | -19.35324 | -51.29943 | 37023 ft | 469 kts | 129° |
| 2026-04-28 00:27 | -19.39392 | -51.24540 | 37020 ft | 468 kts | 129° |
| 2026-04-28 00:27 | -19.43422 | -51.19185 | 37020 ft | 468 kts | 128° |
| 2026-04-28 00:28 | -19.47470 | -51.13799 | 37020 ft | 468 kts | 128° |
| 2026-04-28 00:28 | -19.51523 | -51.08404 | 37021 ft | 469 kts | 129° |
| 2026-04-28 00:29 | -19.55604 | -51.02965 | 37022 ft | 470 kts | 128° |
| 2026-04-28 00:29 | -19.59660 | -50.97555 | 37019 ft | 470 kts | 129° |
| 2026-04-28 00:30 | -19.63702 | -50.92159 | 37018 ft | 469 kts | 129° |
| 2026-04-28 00:30 | -19.67774 | -50.86718 | 37019 ft | 469 kts | 129° |
| 2026-04-28 00:31 | -19.71823 | -50.81303 | 37022 ft | 470 kts | 129° |
| 2026-04-28 00:31 | -19.75864 | -50.75893 | 37024 ft | 469 kts | 129° |
| 2026-04-28 00:32 | -19.79904 | -50.70480 | 37025 ft | 470 kts | 128° |
| 2026-04-28 00:32 | -19.83974 | -50.65020 | 37024 ft | 471 kts | 129° |
| 2026-04-28 00:33 | -19.88015 | -50.59595 | 37024 ft | 469 kts | 129° |
| 2026-04-28 00:33 | -19.92067 | -50.54151 | 37025 ft | 470 kts | 129° |
| 2026-04-28 00:34 | -19.96111 | -50.48712 | 37028 ft | 470 kts | 128° |
| 2026-04-28 00:34 | -20.00153 | -50.43271 | 37031 ft | 471 kts | 128° |
| 2026-04-28 00:35 | -20.04212 | -50.37801 | 37033 ft | 469 kts | 128° |
| 2026-04-28 00:35 | -20.08250 | -50.32355 | 37037 ft | 470 kts | 128° |
| 2026-04-28 00:36 | -20.12474 | -50.27020 | 37040 ft | 471 kts | 134° |
| 2026-04-28 00:36 | -20.17140 | -50.22161 | 37044 ft | 471 kts | 137° |
| 2026-04-28 00:37 | -20.21982 | -50.17452 | 37044 ft | 471 kts | 138° |
| 2026-04-28 00:37 | -20.26802 | -50.12782 | 37045 ft | 470 kts | 138° |
| 2026-04-28 00:38 | -20.31641 | -50.08048 | 37041 ft | 472 kts | 138° |
| 2026-04-28 00:38 | -20.36432 | -50.03320 | 37041 ft | 471 kts | 137° |
| 2026-04-28 00:39 | -20.41236 | -49.98555 | 37041 ft | 472 kts | 137° |
| 2026-04-28 00:39 | -20.46055 | -49.93760 | 37042 ft | 473 kts | 137° |
| 2026-04-28 00:40 | -20.50867 | -49.88966 | 37044 ft | 472 kts | 137° |
| 2026-04-28 00:40 | -20.55654 | -49.84192 | 37044 ft | 472 kts | 138° |
| 2026-04-28 00:41 | -20.60459 | -49.79396 | 37044 ft | 473 kts | 137° |
| 2026-04-28 00:41 | -20.65248 | -49.74612 | 37043 ft | 473 kts | 138° |
| 2026-04-28 00:42 | -20.70054 | -49.69808 | 37038 ft | 473 kts | 137° |
| 2026-04-28 00:42 | -20.74852 | -49.65006 | 37034 ft | 474 kts | 138° |
| 2026-04-28 00:43 | -20.79661 | -49.60189 | 37032 ft | 474 kts | 138° |
| 2026-04-28 00:43 | -20.84469 | -49.55368 | 37030 ft | 475 kts | 138° |
| 2026-04-28 00:44 | -20.89277 | -49.50543 | 37028 ft | 474 kts | 138° |
| 2026-04-28 00:44 | -20.94083 | -49.45715 | 37029 ft | 474 kts | 138° |
| 2026-04-28 00:45 | -20.98886 | -49.40886 | 37031 ft | 476 kts | 138° |
| 2026-04-28 00:45 | -21.03694 | -49.36048 | 37031 ft | 473 kts | 138° |
| 2026-04-28 00:46 | -21.08500 | -49.31208 | 37034 ft | 474 kts | 137° |
| 2026-04-28 00:46 | -21.13299 | -49.26370 | 37036 ft | 476 kts | 138° |
| 2026-04-28 00:47 | -21.18123 | -49.21502 | 37040 ft | 476 kts | 138° |
| 2026-04-28 00:47 | -21.22925 | -49.16650 | 37038 ft | 475 kts | 138° |
| 2026-04-28 00:48 | -21.27746 | -49.11775 | 37038 ft | 476 kts | 138° |
| 2026-04-28 00:48 | -21.32536 | -49.06928 | 37040 ft | 475 kts | 138° |
| 2026-04-28 00:49 | -21.37328 | -49.02076 | 37040 ft | 474 kts | 138° |
| 2026-04-28 00:49 | -21.42149 | -48.97188 | 37043 ft | 477 kts | 138° |
| 2026-04-28 00:50 | -21.46947 | -48.92318 | 37045 ft | 475 kts | 138° |
| 2026-04-28 00:50 | -21.51752 | -48.87437 | 37051 ft | 477 kts | 138° |
| 2026-04-28 00:51 | -21.56576 | -48.82533 | 37052 ft | 478 kts | 138° |
| 2026-04-28 00:51 | -21.61406 | -48.77617 | 37052 ft | 478 kts | 138° |
| 2026-04-28 00:52 | -21.66218 | -48.72715 | 37057 ft | 477 kts | 138° |
| 2026-04-28 00:52 | -21.71006 | -48.67833 | 37058 ft | 477 kts | 138° |
| 2026-04-28 00:53 | -21.75813 | -48.62928 | 37061 ft | 477 kts | 138° |
| 2026-04-28 00:53 | -21.80649 | -48.57986 | 37062 ft | 477 kts | 138° |
| 2026-04-28 00:54 | -21.85434 | -48.53094 | 37064 ft | 478 kts | 138° |
| 2026-04-28 00:54 | -21.90255 | -48.48159 | 37063 ft | 479 kts | 138° |
| 2026-04-28 00:55 | -21.95089 | -48.43206 | 37066 ft | 478 kts | 138° |
| 2026-04-28 00:55 | -21.99899 | -48.38272 | 37068 ft | 479 kts | 138° |
| 2026-04-28 00:56 | -22.04717 | -48.33326 | 37067 ft | 479 kts | 137° |
| 2026-04-28 00:56 | -22.09555 | -48.28355 | 37077 ft | 481 kts | 137° |
| 2026-04-28 00:57 | -22.14379 | -48.23392 | 37082 ft | 478 kts | 138° |
| 2026-04-28 00:57 | -22.16784 | -48.20916 | 36839 ft | 475 kts | 137° |
| 2026-04-28 00:57 | -22.19155 | -48.18473 | 36417 ft | 470 kts | 138° |
| 2026-04-28 00:57 | -22.21502 | -48.16053 | 35989 ft | 464 kts | 137° |
| 2026-04-28 00:58 | -22.23815 | -48.13667 | 35334 ft | 464 kts | 137° |
| 2026-04-28 00:58 | -22.26161 | -48.11248 | 34688 ft | 464 kts | 137° |
| 2026-04-28 00:58 | -22.28478 | -48.08857 | 34138 ft | 461 kts | 137° |
| 2026-04-28 00:58 | -22.30768 | -48.06493 | 33612 ft | 458 kts | 137° |
| 2026-04-28 00:59 | -22.33059 | -48.04126 | 33137 ft | 454 kts | 137° |
| 2026-04-28 00:59 | -22.35328 | -48.01780 | 32640 ft | 451 kts | 137° |
| 2026-04-28 00:59 | -22.37609 | -47.99421 | 32161 ft | 448 kts | 137° |
| 2026-04-28 00:59 | -22.39830 | -47.97124 | 31758 ft | 444 kts | 137° |
| 2026-04-28 01:00 | -22.42055 | -47.94821 | 31231 ft | 443 kts | 137° |
| 2026-04-28 01:00 | -22.44279 | -47.92518 | 30763 ft | 441 kts | 137° |
| 2026-04-28 01:00 | -22.46480 | -47.90237 | 30304 ft | 438 kts | 137° |
| 2026-04-28 01:00 | -22.48686 | -47.87946 | 29848 ft | 436 kts | 137° |
| 2026-04-28 01:01 | -22.50840 | -47.85688 | 29369 ft | 434 kts | 137° |
| 2026-04-28 01:01 | -22.52992 | -47.83418 | 28659 ft | 432 kts | 137° |
| 2026-04-28 01:01 | -22.55113 | -47.81172 | 28056 ft | 427 kts | 136° |
| 2026-04-28 01:01 | -22.57249 | -47.78908 | 27404 ft | 423 kts | 136° |
| 2026-04-28 01:02 | -22.59316 | -47.76717 | 26773 ft | 420 kts | 137° |
| 2026-04-28 01:02 | -22.61395 | -47.74515 | 26134 ft | 416 kts | 136° |
| 2026-04-28 01:02 | -22.63439 | -47.72350 | 25667 ft | 412 kts | 137° |
| 2026-04-28 01:02 | -22.65505 | -47.70162 | 25152 ft | 411 kts | 137° |
| 2026-04-28 01:03 | -22.67532 | -47.68013 | 24681 ft | 410 kts | 137° |
| 2026-04-28 01:03 | -22.69572 | -47.65852 | 24212 ft | 409 kts | 137° |
| 2026-04-28 01:03 | -22.71589 | -47.63715 | 23740 ft | 408 kts | 137° |
| 2026-04-28 01:03 | -22.73597 | -47.61588 | 23382 ft | 403 kts | 137° |
| 2026-04-28 01:04 | -22.75588 | -47.59477 | 23017 ft | 399 kts | 137° |
| 2026-04-28 01:04 | -22.77578 | -47.57367 | 22633 ft | 396 kts | 137° |
| 2026-04-28 01:04 | -22.79526 | -47.55298 | 22211 ft | 395 kts | 137° |
| 2026-04-28 01:04 | -22.81495 | -47.53209 | 21853 ft | 392 kts | 137° |
| 2026-04-28 01:05 | -22.83426 | -47.51157 | 21486 ft | 389 kts | 137° |
| 2026-04-28 01:05 | -22.85345 | -47.49117 | 21148 ft | 385 kts | 137° |
| 2026-04-28 01:05 | -22.87261 | -47.47080 | 20803 ft | 380 kts | 137° |
| 2026-04-28 01:05 | -22.89139 | -47.45083 | 20450 ft | 377 kts | 137° |
| 2026-04-28 01:06 | -22.90995 | -47.43108 | 20078 ft | 374 kts | 137° |
| 2026-04-28 01:06 | -22.92831 | -47.41153 | 19716 ft | 371 kts | 137° |
| 2026-04-28 01:06 | -22.94659 | -47.39206 | 19377 ft | 368 kts | 136° |
| 2026-04-28 01:06 | -22.96494 | -47.37252 | 19006 ft | 365 kts | 136° |
| 2026-04-28 01:07 | -22.98273 | -47.35355 | 18652 ft | 361 kts | 136° |
| 2026-04-28 01:07 | -23.00066 | -47.33441 | 18292 ft | 358 kts | 136° |
| 2026-04-28 01:07 | -23.01841 | -47.31545 | 17947 ft | 353 kts | 136° |
| 2026-04-28 01:07 | -23.03000 | -47.30308 | 17614 ft | 353 kts | 136° |
| 2026-04-28 01:08 | -23.05316 | -47.27834 | 16894 ft | 347 kts | 136° |
| 2026-04-28 01:08 | -23.07024 | -47.26009 | 16321 ft | 344 kts | 136° |
| 2026-04-28 01:08 | -23.08725 | -47.24193 | 15754 ft | 341 kts | 135° |
| 2026-04-28 01:08 | -23.10403 | -47.22399 | 15196 ft | 337 kts | 135° |
| 2026-04-28 01:09 | -23.12043 | -47.20645 | 14639 ft | 333 kts | 135° |
| 2026-04-28 01:09 | -23.13691 | -47.18882 | 14081 ft | 330 kts | 135° |
| 2026-04-28 01:09 | -23.15312 | -47.17147 | 13559 ft | 325 kts | 135° |
| 2026-04-28 01:09 | -23.16912 | -47.15435 | 13014 ft | 322 kts | 135° |
| 2026-04-28 01:10 | -23.18502 | -47.13731 | 12425 ft | 320 kts | 135° |
| 2026-04-28 01:10 | -23.20055 | -47.12067 | 11970 ft | 313 kts | 135° |
| 2026-04-28 01:10 | -23.21592 | -47.10421 | 11578 ft | 305 kts | 135° |
| 2026-04-28 01:10 | -23.23084 | -47.08822 | 11219 ft | 297 kts | 136° |
| 2026-04-28 01:11 | -23.24536 | -47.07267 | 10892 ft | 295 kts | 136° |
| 2026-04-28 01:11 | -23.26046 | -47.05650 | 10492 ft | 309 kts | 136° |
| 2026-04-28 01:11 | -23.27575 | -47.04012 | 10131 ft | 309 kts | 136° |
| 2026-04-28 01:11 | -23.29080 | -47.02398 | 9924 ft | 302 kts | 136° |
| 2026-04-28 01:12 | -23.30592 | -47.00776 | 9530 ft | 303 kts | 136° |
| 2026-04-28 01:12 | -23.32068 | -46.99192 | 9182 ft | 302 kts | 136° |
| 2026-04-28 01:12 | -23.33563 | -46.97586 | 8810 ft | 301 kts | 136° |
| 2026-04-28 01:12 | -23.35057 | -46.95981 | 8439 ft | 300 kts | 136° |
| 2026-04-28 01:13 | -23.36544 | -46.94383 | 8078 ft | 299 kts | 136° |
| 2026-04-28 01:13 | -23.39466 | -46.91237 | 7487 ft | 289 kts | 135° |
| 2026-04-28 01:13 | -23.40866 | -46.89728 | 7166 ft | 279 kts | 136° |
| 2026-04-28 01:14 | -23.42226 | -46.88263 | 6836 ft | 270 kts | 136° |
| 2026-04-28 01:14 | -23.43534 | -46.86853 | 6511 ft | 262 kts | 135° |
| 2026-04-28 01:14 | -23.44813 | -46.85474 | 6204 ft | 255 kts | 135° |
| 2026-04-28 01:14 | -23.46054 | -46.84137 | 6009 ft | 243 kts | 136° |
| 2026-04-28 01:15 | -23.47214 | -46.82886 | 5936 ft | 226 kts | 136° |
| 2026-04-28 01:15 | -23.48282 | -46.81733 | 5881 ft | 212 kts | 136° |
| 2026-04-28 01:15 | -23.49264 | -46.80534 | 5777 ft | 211 kts | 123° |
| 2026-04-28 01:15 | -23.49825 | -46.79093 | 5591 ft | 205 kts | 103° |
| 2026-04-28 01:16 | -23.50135 | -46.77602 | 5436 ft | 197 kts | 102° |
| 2026-04-28 01:16 | -23.50461 | -46.76158 | 5294 ft | 197 kts | 104° |
| 2026-04-28 01:16 | -23.50831 | -46.74719 | 5105 ft | 196 kts | 108° |
| 2026-04-28 01:16 | -23.51447 | -46.73431 | 4937 ft | 192 kts | 136° |
| 2026-04-28 01:17 | -23.52499 | -46.72581 | 4716 ft | 183 kts | 152° |
| 2026-04-28 01:17 | -23.53587 | -46.71904 | 4473 ft | 173 kts | 150° |
| 2026-04-28 01:17 | -23.54575 | -46.71210 | 4258 ft | 169 kts | 148° |
| 2026-04-28 01:17 | -23.55526 | -46.70544 | 4038 ft | 156 kts | 150° |
| 2026-04-28 01:18 | -23.56443 | -46.69926 | 3856 ft | 157 kts | 149° |
| 2026-04-28 01:18 | -23.57349 | -46.69298 | 3652 ft | 152 kts | 148° |
| 2026-04-28 01:18 | -23.58218 | -46.68700 | 3473 ft | 154 kts | 149° |
| 2026-04-28 01:18 | -23.59064 | -46.68122 | 3266 ft | 150 kts | 150° |